Terminal Aerodrome Forecast
Issued by NWS Louisville, KY

Home | Current Version | Previous Version | Text Only | Print | Product List | Glossary On
Versions: 1 2 3 4 5 6 7 8 9 10 11 12 13 14 15
246
FTUS43 KLMK 181741 AAB
TAFSDF
TAF AMD
KSDF 181741Z 1818/1924 20014G22KT P6SM BKN080
     FM182200 23023G28KT P6SM -SHRA OVC035
     FM190000 27024G34KT P6SM BKN090
     FM190800 28017G26KT P6SM BKN090
     FM191000 31013G19KT P6SM BKN030
     FM191600 34012G18KT P6SM BKN040=

USA.gov is the U.S. government's official web portal to all federal, state and local government web resources and services.